createdAt,value
2017-07-15T06:34:33.903Z,99.90
2017-07-15T06:37:01.469Z,90.10
2017-07-15T06:39:29.825Z,85.90
2017-07-15T06:41:57.407Z,85.90
2017-07-15T06:44:24.990Z,84.00
2017-07-15T06:46:52.575Z,79.50
2017-07-15T06:49:20.237Z,81.00
2017-07-15T06:51:47.794Z,84.10
2017-07-15T06:54:16.110Z,84.90
2017-07-15T06:56:43.696Z,84.90
2017-07-15T06:59:11.244Z,82.20
2017-07-15T07:01:38.817Z,78.70
2017-07-15T07:04:06.402Z,76.80
2017-07-15T07:06:33.955Z,78.00
2017-07-15T07:09:01.572Z,77.40
2017-07-15T07:11:29.175Z,77.50
2017-07-15T07:13:56.723Z,76.30
2017-07-15T07:16:24.250Z,75.80
2017-07-15T07:18:53.590Z,75.10
2017-07-15T07:21:21.501Z,75.10
2017-07-15T07:23:49.849Z,71.00
2017-07-15T07:26:17.435Z,70.90
2017-07-15T07:28:45.141Z,71.50
2017-07-15T07:31:13.471Z,64.70
2017-07-15T07:33:41.035Z,64.60
2017-07-15T07:36:08.609Z,62.90
2017-07-15T07:38:36.196Z,60.80
2017-07-15T07:41:03.821Z,61.80
2017-07-15T07:43:31.382Z,59.10
2017-07-15T07:45:58.914Z,62.40
2017-07-15T07:48:27.300Z,60.30
2017-07-15T07:50:55.607Z,57.20
2017-07-15T07:53:23.156Z,56.80
2017-07-15T07:55:50.778Z,51.70
2017-07-15T07:58:19.344Z,51.60
2017-07-15T08:00:47.029Z,54.40
2017-07-15T08:03:21.550Z,54.30
2017-07-15T08:05:55.493Z,51.80
2017-07-15T08:08:23.974Z,56.70
2017-07-15T08:10:52.604Z,59.10
2017-07-15T08:13:20.458Z,59.10
2017-07-15T08:15:49.161Z,58.50
2017-07-15T08:18:16.718Z,56.50
2017-07-15T08:20:44.705Z,53.40
2017-07-15T08:23:16.196Z,49.80
2017-07-15T08:25:45.297Z,50.30
2017-07-15T08:28:13.172Z,53.00
2017-07-15T08:30:41.424Z,51.20
2017-07-15T08:33:09.013Z,53.00
2017-07-15T08:35:39.376Z,49.70
2017-07-15T08:38:09.409Z,49.60
2017-07-15T08:40:40.307Z,51.00
2017-07-15T08:43:07.999Z,46.80
2017-07-15T08:45:40.648Z,45.50
2017-07-15T08:48:10.814Z,45.30
2017-07-15T08:50:39.323Z,47.90
2017-07-15T08:53:07.733Z,51.40
2017-07-15T08:55:38.226Z,53.70
2017-07-15T08:58:06.298Z,52.50
2017-07-15T09:00:41.481Z,50.60
2017-07-15T09:03:09.952Z,50.60
2017-07-15T09:05:39.300Z,46.80
2017-07-15T09:08:10.630Z,51.00
2017-07-15T09:10:38.518Z,53.90
2017-07-15T09:13:06.245Z,55.60
2017-07-15T09:15:33.945Z,58.30
2017-07-15T09:18:01.524Z,54.90
2017-07-15T09:20:29.091Z,54.00
2017-07-15T09:22:57.470Z,54.40
2017-07-15T09:25:25.022Z,54.40
2017-07-15T09:27:52.570Z,50.10
2017-07-15T09:30:20.164Z,46.70
2017-07-15T09:32:47.726Z,48.40
2017-07-15T09:35:15.262Z,47.20
2017-07-15T09:37:42.832Z,47.20
2017-07-15T09:40:10.412Z,50.20
2017-07-15T09:42:37.964Z,49.60
2017-07-15T09:45:05.514Z,49.70
2017-07-15T09:47:33.104Z,48.70
2017-07-15T09:50:00.646Z,50.10
2017-07-15T09:52:28.245Z,51.10
2017-07-15T09:54:56.601Z,50.20
2017-07-15T09:57:25.413Z,50.20
2017-07-15T09:59:52.964Z,52.40
2017-07-15T10:02:20.534Z,52.40
2017-07-15T10:04:48.097Z,51.50
2017-07-15T10:07:15.683Z,55.00
2017-07-15T10:09:43.227Z,55.20
2017-07-15T10:12:10.802Z,54.80
2017-07-15T10:14:38.400Z,53.10
2017-07-15T10:17:05.937Z,54.80
2017-07-15T10:19:35.103Z,53.80
2017-07-15T10:22:03.061Z,53.10
2017-07-15T10:24:30.591Z,55.70
2017-07-15T10:26:58.181Z,56.40
2017-07-15T10:29:25.822Z,57.60
2017-07-15T10:31:54.137Z,54.10
2017-07-15T10:34:21.680Z,53.90
2017-07-15T10:36:50.015Z,50.20
2017-07-15T10:39:17.584Z,50.20
2017-07-15T10:41:45.383Z,52.50
2017-07-15T10:44:14.947Z,53.50
2017-07-15T10:46:42.780Z,53.50
2017-07-15T10:49:10.592Z,53.40
2017-07-15T10:51:38.540Z,52.90
2017-07-15T10:54:06.420Z,52.10
2017-07-15T10:56:34.941Z,51.40
2017-07-15T10:59:03.398Z,48.70
2017-07-15T11:01:31.160Z,48.50
2017-07-15T11:03:58.765Z,46.10
2017-07-15T11:06:27.166Z,46.20
2017-07-15T11:08:54.721Z,45.80
2017-07-15T11:11:22.382Z,45.50
2017-07-15T11:13:50.946Z,40.30
2017-07-15T11:16:18.494Z,37.00
2017-07-15T11:18:46.075Z,35.10
2017-07-15T11:21:13.645Z,37.90
2017-07-15T11:23:41.175Z,39.60
2017-07-15T11:26:08.719Z,41.80
2017-07-15T11:28:37.113Z,48.80
2017-07-15T11:31:04.715Z,48.70
2017-07-15T11:33:32.264Z,52.30
2017-07-15T11:36:00.823Z,51.70
2017-07-15T11:38:28.395Z,54.00
2017-07-15T11:40:56.689Z,54.40
2017-07-15T11:43:25.090Z,54.40
2017-07-15T11:45:52.648Z,56.60
2017-07-15T11:48:20.271Z,58.70
2017-07-15T11:50:48.786Z,56.00
2017-07-15T11:53:18.019Z,55.80
2017-07-15T11:55:45.613Z,57.50
2017-07-15T11:58:13.197Z,53.50
2017-07-15T12:00:42.329Z,46.20
2017-07-15T12:03:09.871Z,46.00
2017-07-15T12:05:38.223Z,40.40
2017-07-15T12:08:06.001Z,40.40
2017-07-15T12:10:33.711Z,42.20
2017-07-15T12:13:03.595Z,38.60
2017-07-15T12:15:32.566Z,39.90
2017-07-15T12:18:00.378Z,39.80
2017-07-15T12:20:28.809Z,43.50
2017-07-15T12:22:56.643Z,45.90
2017-07-15T12:25:24.537Z,50.20
2017-07-15T12:27:52.418Z,48.90
2017-07-15T12:30:20.008Z,52.00
2017-07-15T12:32:47.765Z,50.50
2017-07-15T12:35:16.301Z,40.90
2017-07-15T12:37:43.968Z,40.90
2017-07-15T12:40:11.663Z,39.40
2017-07-15T12:42:39.490Z,40.40
2017-07-15T12:45:07.120Z,39.50
2017-07-15T12:47:34.893Z,37.30
2017-07-15T12:50:02.751Z,36.80
2017-07-15T12:52:30.317Z,37.00
2017-07-15T12:54:57.876Z,39.20
2017-07-15T12:57:25.496Z,42.40
2017-07-15T12:59:53.980Z,37.30
2017-07-15T13:02:21.740Z,37.20
2017-07-15T13:04:50.287Z,37.80
2017-07-15T13:07:17.884Z,37.80
2017-07-15T13:09:46.203Z,40.50
2017-07-15T13:12:14.927Z,40.50
2017-07-15T13:14:42.508Z,39.40
2017-07-15T13:17:10.064Z,38.60
2017-07-15T13:19:38.015Z,40.00
2017-07-15T13:22:05.662Z,37.70
2017-07-15T13:24:33.487Z,39.30
2017-07-15T13:27:01.110Z,39.40
2017-07-15T13:29:28.642Z,43.20
2017-07-15T13:31:56.481Z,42.60
2017-07-15T13:34:25.641Z,37.60
2017-07-15T13:36:53.205Z,37.40
2017-07-15T13:39:20.906Z,35.60
2017-07-15T13:41:48.782Z,34.80
2017-07-15T13:44:18.310Z,36.40
2017-07-15T13:46:46.776Z,37.30
2017-07-15T13:49:14.343Z,37.40
2017-07-15T13:51:41.902Z,40.40
2017-07-15T13:54:09.834Z,42.40
2017-07-15T13:56:39.206Z,43.50
2017-07-15T13:59:07.158Z,44.90
2017-07-15T14:01:34.746Z,42.00
2017-07-15T14:04:02.332Z,38.90
2017-07-15T14:06:30.681Z,38.20
2017-07-15T14:08:58.241Z,38.20
2017-07-15T14:11:25.832Z,38.50
2017-07-15T14:13:54.168Z,35.40
2017-07-15T14:16:21.721Z,35.30
2017-07-15T14:18:49.297Z,36.70
2017-07-15T14:21:19.243Z,35.00
2017-07-15T14:23:47.631Z,37.50
2017-07-15T14:26:15.544Z,37.50
2017-07-15T14:28:43.309Z,35.10
2017-07-15T14:31:11.478Z,38.90
2017-07-15T14:33:39.396Z,35.10
2017-07-15T14:36:07.833Z,36.10
2017-07-15T14:38:36.141Z,33.80
2017-07-15T14:41:03.777Z,33.80
2017-07-15T14:43:31.513Z,32.50
2017-07-15T14:45:59.407Z,32.40
2017-07-15T14:48:27.820Z,32.80
2017-07-15T14:50:55.461Z,32.90
2017-07-15T14:53:24.360Z,33.50
2017-07-15T14:55:51.970Z,33.50
2017-07-15T14:58:19.647Z,33.30
2017-07-15T15:00:47.457Z,31.50
2017-07-15T15:03:15.277Z,33.80
2017-07-15T15:05:42.851Z,32.20
2017-07-15T15:08:11.137Z,33.20
2017-07-15T15:10:38.742Z,33.20
2017-07-15T15:13:07.882Z,32.30
2017-07-15T15:15:35.604Z,32.20
2017-07-15T15:18:03.352Z,34.00
2017-07-15T15:20:32.129Z,37.40
2017-07-15T15:23:00.024Z,37.40
2017-07-15T15:25:27.862Z,37.40
2017-07-15T15:27:55.816Z,33.70
2017-07-15T15:30:23.508Z,33.60
2017-07-15T15:32:51.248Z,33.50
2017-07-15T15:35:18.882Z,32.90
2017-07-15T15:37:46.453Z,31.90
2017-07-15T15:40:14.764Z,33.90
2017-07-15T15:42:42.417Z,33.80
2017-07-15T15:45:10.769Z,31.30
2017-07-15T15:47:38.900Z,31.20
2017-07-15T15:50:07.815Z,30.10
2017-07-15T15:52:36.024Z,30.70
2017-07-15T15:55:03.878Z,32.40
2017-07-15T15:57:34.435Z,32.20
2017-07-15T16:00:03.055Z,36.30
2017-07-15T16:02:31.769Z,36.20
2017-07-15T16:04:59.837Z,40.50
2017-07-15T16:07:27.606Z,41.70
2017-07-15T16:09:55.820Z,44.50
2017-07-15T16:12:24.699Z,44.20
2017-07-15T16:14:52.556Z,45.10
2017-07-15T16:17:20.404Z,42.20
2017-07-15T16:19:48.162Z,42.60
2017-07-15T16:22:16.701Z,36.70
2017-07-15T16:24:44.557Z,36.70
2017-07-15T16:27:12.538Z,36.10
2017-07-15T16:29:48.297Z,38.40
2017-07-15T16:32:26.218Z,38.80
2017-07-15T16:34:56.209Z,41.70
2017-07-15T16:37:44.379Z,41.30
2017-07-15T16:40:16.763Z,44.00
2017-07-15T16:42:44.846Z,45.30
2017-07-15T16:45:12.712Z,46.20
2017-07-15T16:47:44.181Z,46.10
2017-07-15T16:50:12.454Z,46.00
2017-07-15T16:52:41.566Z,48.10
2017-07-15T16:55:09.162Z,48.20
2017-07-15T16:57:36.736Z,48.90
2017-07-15T17:00:04.279Z,48.60
2017-07-15T17:02:32.855Z,48.30
2017-07-15T17:05:00.453Z,50.10
2017-07-15T17:07:28.027Z,47.90
2017-07-15T17:09:56.631Z,48.00
2017-07-15T17:12:24.172Z,47.80
2017-07-15T17:14:51.733Z,47.50
2017-07-15T17:17:33.190Z,48.40
2017-07-15T17:20:00.766Z,47.90
2017-07-15T17:22:29.266Z,48.70
2017-07-15T17:24:56.903Z,48.90
2017-07-15T17:27:25.312Z,49.10
2017-07-15T17:29:52.831Z,49.30
2017-07-15T17:32:20.409Z,49.80
2017-07-15T17:34:47.960Z,51.10
2017-07-15T17:37:22.223Z,51.00
2017-07-15T17:39:50.845Z,49.90
2017-07-15T17:42:18.405Z,51.20
2017-07-15T17:44:45.979Z,51.70
2017-07-15T17:47:13.566Z,52.40
2017-07-15T17:49:41.932Z,52.90
2017-07-15T17:52:09.570Z,54.00
2017-07-15T17:54:37.157Z,54.70
2017-07-15T17:57:04.752Z,55.30
2017-07-15T17:59:34.376Z,55.90
2017-07-15T18:02:01.950Z,55.80
2017-07-15T18:04:29.536Z,58.00
2017-07-15T18:06:57.079Z,58.10
2017-07-15T18:09:24.917Z,59.10
2017-07-15T18:11:53.453Z,59.10
2017-07-15T18:14:21.221Z,59.10
2017-07-15T18:16:51.241Z,60.20
2017-07-15T18:19:18.923Z,61.90
2017-07-15T18:21:49.951Z,62.30
2017-07-15T18:24:17.540Z,62.00
2017-07-15T18:26:47.128Z,63.00
2017-07-15T18:29:18.914Z,62.70
2017-07-15T18:31:46.878Z,63.80
2017-07-15T18:34:14.535Z,64.80
2017-07-15T18:36:45.935Z,66.00
2017-07-15T18:39:16.974Z,66.00
2017-07-15T18:41:45.324Z,68.90
2017-07-15T18:44:13.013Z,68.10
2017-07-15T18:46:41.639Z,68.30
2017-07-15T18:49:09.207Z,68.70
2017-07-15T18:51:37.638Z,69.80
2017-07-15T18:54:06.142Z,70.60
2017-07-15T18:56:33.710Z,73.60
2017-07-15T18:59:03.085Z,75.10
2017-07-15T19:01:32.195Z,75.20
2017-07-15T19:03:59.795Z,76.90
2017-07-15T19:06:28.725Z,78.30
2017-07-15T19:08:57.284Z,78.90
2017-07-15T19:15:37.996Z,80.20
2017-07-15T19:18:06.984Z,82.20
2017-07-15T19:20:40.783Z,82.10
2017-07-15T19:23:08.641Z,82.30
2017-07-15T19:25:38.906Z,82.50
2017-07-15T19:28:09.906Z,82.50
2017-07-15T19:33:43.886Z,84.10
2017-07-15T19:45:06.449Z,88.60
2017-07-15T19:47:41.264Z,89.80
2017-07-15T19:53:17.387Z,88.80
2017-07-15T19:55:56.666Z,89.30
2017-07-15T20:10:15.997Z,90.10
2017-07-15T20:12:45.689Z,89.70
2017-07-15T20:15:17.665Z,91.00
2017-07-15T20:17:45.359Z,91.20
2017-07-15T20:20:24.333Z,88.10
2017-07-15T20:22:53.452Z,88.00
2017-07-15T20:25:24.492Z,89.00
2017-07-15T20:27:52.572Z,90.50
2017-07-15T20:33:49.300Z,91.40
2017-07-15T20:36:37.275Z,91.90
2017-07-15T20:39:21.139Z,91.70
2017-07-15T20:42:03.306Z,91.80
2017-07-15T20:53:51.820Z,92.00
2017-07-15T21:05:36.177Z,93.40
2017-07-15T21:14:36.266Z,93.10
2017-07-15T21:20:14.173Z,93.30
2017-07-15T21:29:43.818Z,94.20
2017-07-15T21:32:19.678Z,94.30
2017-07-15T21:35:14.719Z,94.60
2017-07-15T21:41:12.524Z,95.20
2017-07-15T21:59:26.551Z,96.00
2017-07-15T22:01:55.435Z,95.70
2017-07-15T22:04:23.927Z,95.90
2017-07-15T22:06:51.827Z,95.90
2017-07-15T22:09:19.731Z,95.60
2017-07-15T22:11:47.534Z,96.00
2017-07-15T22:14:15.433Z,96.40
2017-07-15T22:16:44.056Z,96.10
2017-07-15T22:19:11.942Z,96.30
2017-07-15T22:21:39.755Z,96.40
2017-07-15T22:24:08.375Z,96.80
2017-07-15T22:26:36.118Z,96.70
2017-07-15T22:29:03.966Z,96.70
2017-07-15T22:31:31.836Z,97.10
2017-07-15T22:33:59.734Z,97.70
2017-07-15T22:36:27.872Z,97.60
2017-07-15T22:38:56.478Z,97.90
2017-07-15T22:41:24.279Z,97.90
2017-07-15T22:43:52.291Z,97.90
2017-07-15T22:46:20.062Z,98.00
2017-07-15T22:48:47.819Z,97.90
2017-07-15T22:51:15.613Z,98.30
2017-07-15T22:53:44.237Z,98.40
2017-07-15T22:56:12.882Z,98.40
2017-07-15T22:58:40.687Z,98.40
2017-07-15T23:01:08.554Z,98.30
2017-07-15T23:03:37.096Z,98.60
2017-07-15T23:06:05.003Z,98.50
2017-07-15T23:08:33.516Z,98.80
2017-07-15T23:11:01.320Z,98.90
2017-07-15T23:13:29.023Z,98.80
2017-07-15T23:15:56.829Z,98.70
2017-07-15T23:18:24.688Z,98.70
2017-07-15T23:24:22.077Z,98.80
2017-07-15T23:26:49.876Z,98.70
2017-07-15T23:29:17.882Z,99.20
2017-07-15T23:31:46.497Z,98.80
2017-07-15T23:34:14.333Z,98.80
2017-07-15T23:36:42.905Z,98.90
2017-07-15T23:39:10.653Z,98.90
2017-07-15T23:41:39.199Z,98.90
2017-07-15T23:44:07.098Z,98.90
2017-07-15T23:46:35.081Z,98.90
2017-07-15T23:49:02.941Z,99.10
2017-07-15T23:51:31.020Z,99.20
2017-07-15T23:53:58.985Z,99.30
2017-07-15T23:56:26.917Z,99.40
2017-07-15T23:58:55.594Z,99.50
